DAL213 KORD-KATW
Flight info
| Callsign | DAL213 |
|---|---|
| Flight time | 0h 28m |
| Altitude | 20000 |
| Route | PMPKN NEATO DLLAN RONIC BAE |
| Aircraft | A320/M-SDE3FGHIRWY/LB1 |
Departure
| Time | 2026-05-05 23:36 |
|---|---|
| Airport | Chicago O'Hare International Airport (KORD) |
Arrival
| Time | 2026-05-06 00:05 |
|---|---|
| Airport | Appleton International Airport (KATW) |
| Time | Latitude | Longitude | Altitude | Speed | Heading |
|---|---|---|---|---|---|
| 2026-05-05 23:25 | 41.97357 | -87.88847 | 659 ft | 0 kts | 0° |
| 2026-05-05 23:28 | 41.97344 | -87.88847 | 659 ft | 4 kts | 0° |
| 2026-05-05 23:28 | 41.97317 | -87.88847 | 659 ft | 4 kts | 2° |
| 2026-05-05 23:28 | 41.97291 | -87.88853 | 659 ft | 4 kts | 24° |
| 2026-05-05 23:28 | 41.97272 | -87.88872 | 659 ft | 4 kts | 73° |
| 2026-05-05 23:29 | 41.97270 | -87.88883 | 659 ft | 0 kts | 90° |
| 2026-05-05 23:30 | 41.97270 | -87.88839 | 659 ft | 12 kts | 90° |
| 2026-05-05 23:31 | 41.97269 | -87.88717 | 659 ft | 16 kts | 90° |
| 2026-05-05 23:31 | 41.97270 | -87.88553 | 660 ft | 19 kts | 89° |
| 2026-05-05 23:31 | 41.97270 | -87.88385 | 659 ft | 19 kts | 90° |
| 2026-05-05 23:31 | 41.97269 | -87.88212 | 660 ft | 16 kts | 92° |
| 2026-05-05 23:32 | 41.97267 | -87.88059 | 660 ft | 19 kts | 90° |
| 2026-05-05 23:32 | 41.97219 | -87.87943 | 660 ft | 16 kts | 189° |
| 2026-05-05 23:32 | 41.97169 | -87.88031 | 661 ft | 13 kts | 194° |
| 2026-05-05 23:32 | 41.97088 | -87.88032 | 663 ft | 0 kts | 179° |
| 2026-05-05 23:35 | 41.97081 | -87.88032 | 663 ft | 5 kts | 180° |
| 2026-05-05 23:35 | 41.97011 | -87.88032 | 665 ft | 15 kts | 179° |
| 2026-05-05 23:35 | 41.96889 | -87.88096 | 665 ft | 24 kts | 223° |
| 2026-05-05 23:36 | 41.96562 | -87.88493 | 665 ft | 109 kts | 220° |
| 2026-05-05 23:36 | 41.95792 | -87.89391 | 772 ft | 171 kts | 225° |
| 2026-05-05 23:36 | 41.94934 | -87.90427 | 1785 ft | 168 kts | 227° |
| 2026-05-05 23:36 | 41.94043 | -87.91588 | 2597 ft | 189 kts | 239° |
| 2026-05-05 23:37 | 41.93717 | -87.93336 | 3373 ft | 207 kts | 282° |
| 2026-05-05 23:37 | 41.94461 | -87.95074 | 4178 ft | 233 kts | 321° |
| 2026-05-05 23:37 | 41.96026 | -87.95881 | 5173 ft | 253 kts | 353° |
| 2026-05-05 23:37 | 41.97821 | -87.95860 | 6551 ft | 261 kts | 2° |
| 2026-05-05 23:38 | 41.99661 | -87.95577 | 7788 ft | 272 kts | 3° |
| 2026-05-05 23:38 | 42.01589 | -87.95248 | 8970 ft | 285 kts | 1° |
| 2026-05-05 23:38 | 42.03578 | -87.94962 | 10053 ft | 297 kts | 359° |
| 2026-05-05 23:38 | 42.05743 | -87.94729 | 10827 ft | 321 kts | 357° |
| 2026-05-05 23:39 | 42.08051 | -87.94554 | 11565 ft | 340 kts | 356° |
| 2026-05-05 23:39 | 42.10419 | -87.94412 | 12617 ft | 348 kts | 355° |
| 2026-05-05 23:39 | 42.12858 | -87.94283 | 13769 ft | 353 kts | 355° |
| 2026-05-05 23:39 | 42.15332 | -87.94164 | 14779 ft | 358 kts | 354° |
| 2026-05-05 23:40 | 42.17840 | -87.94047 | 15733 ft | 364 kts | 354° |
| 2026-05-05 23:40 | 42.20393 | -87.93925 | 16672 ft | 370 kts | 353° |
| 2026-05-05 23:40 | 42.22989 | -87.93796 | 17616 ft | 375 kts | 353° |
| 2026-05-05 23:40 | 42.25590 | -87.93663 | 18484 ft | 380 kts | 353° |
| 2026-05-05 23:41 | 42.28249 | -87.93529 | 19235 ft | 386 kts | 353° |
| 2026-05-05 23:41 | 42.30981 | -87.93440 | 19677 ft | 399 kts | 349° |
| 2026-05-05 23:41 | 42.33793 | -87.93732 | 19831 ft | 415 kts | 346° |
| 2026-05-05 23:41 | 42.36744 | -87.94096 | 19869 ft | 433 kts | 346° |
| 2026-05-05 23:42 | 42.39802 | -87.94473 | 19893 ft | 448 kts | 346° |
| 2026-05-05 23:42 | 42.42952 | -87.94854 | 19864 ft | 461 kts | 347° |
| 2026-05-05 23:42 | 42.46152 | -87.95230 | 19865 ft | 459 kts | 347° |
| 2026-05-05 23:42 | 42.49326 | -87.95590 | 19867 ft | 456 kts | 347° |
| 2026-05-05 23:43 | 42.52488 | -87.95955 | 19885 ft | 455 kts | 347° |
| 2026-05-05 23:43 | 42.55647 | -87.96335 | 19876 ft | 455 kts | 347° |
| 2026-05-05 23:43 | 42.58808 | -87.96727 | 19878 ft | 455 kts | 346° |
| 2026-05-05 23:43 | 42.61963 | -87.97123 | 19882 ft | 455 kts | 346° |
| 2026-05-05 23:44 | 42.65116 | -87.97471 | 19879 ft | 456 kts | 347° |
| 2026-05-05 23:44 | 42.68290 | -87.97736 | 19878 ft | 457 kts | 348° |
| 2026-05-05 23:44 | 42.71393 | -87.98124 | 19877 ft | 449 kts | 341° |
| 2026-05-05 23:44 | 42.74329 | -87.99308 | 19886 ft | 434 kts | 328° |
| 2026-05-05 23:45 | 42.76972 | -88.01197 | 19885 ft | 427 kts | 322° |
| 2026-05-05 23:45 | 42.79552 | -88.03195 | 19884 ft | 427 kts | 322° |
| 2026-05-05 23:45 | 42.82122 | -88.05219 | 19883 ft | 427 kts | 322° |
| 2026-05-05 23:45 | 42.84689 | -88.07249 | 19880 ft | 427 kts | 322° |
| 2026-05-05 23:46 | 42.87257 | -88.09274 | 19881 ft | 427 kts | 322° |
| 2026-05-05 23:46 | 42.89833 | -88.11298 | 19870 ft | 427 kts | 322° |
| 2026-05-05 23:46 | 42.92408 | -88.13316 | 19877 ft | 427 kts | 322° |
| 2026-05-05 23:46 | 42.94985 | -88.15333 | 19876 ft | 427 kts | 322° |
| 2026-05-05 23:47 | 42.97560 | -88.17346 | 19875 ft | 427 kts | 322° |
| 2026-05-05 23:47 | 43.00139 | -88.19359 | 19871 ft | 426 kts | 322° |
| 2026-05-05 23:47 | 43.02712 | -88.21370 | 19895 ft | 427 kts | 322° |
| 2026-05-05 23:47 | 43.05289 | -88.23393 | 19887 ft | 426 kts | 322° |
| 2026-05-05 23:48 | 43.07826 | -88.25389 | 19885 ft | 426 kts | 322° |
| 2026-05-05 23:48 | 43.10399 | -88.27411 | 19880 ft | 427 kts | 323° |
| 2026-05-05 23:48 | 43.13173 | -88.29012 | 19876 ft | 441 kts | 335° |
| 2026-05-05 23:48 | 43.16134 | -88.30153 | 19872 ft | 443 kts | 336° |
| 2026-05-05 23:49 | 43.19108 | -88.31271 | 19871 ft | 443 kts | 336° |
| 2026-05-05 23:49 | 43.22084 | -88.32380 | 19909 ft | 443 kts | 336° |
| 2026-05-05 23:49 | 43.25050 | -88.33487 | 19901 ft | 442 kts | 335° |
| 2026-05-05 23:49 | 43.28020 | -88.34603 | 19905 ft | 442 kts | 335° |
| 2026-05-05 23:50 | 43.30990 | -88.35726 | 19461 ft | 442 kts | 335° |
| 2026-05-05 23:50 | 43.33945 | -88.36845 | 18691 ft | 437 kts | 336° |
| 2026-05-05 23:50 | 43.36857 | -88.37946 | 18145 ft | 431 kts | 336° |
| 2026-05-05 23:50 | 43.39736 | -88.39037 | 17545 ft | 427 kts | 336° |
| 2026-05-05 23:51 | 43.42592 | -88.40125 | 17174 ft | 425 kts | 336° |
| 2026-05-05 23:51 | 43.45438 | -88.41213 | 16565 ft | 423 kts | 336° |
| 2026-05-05 23:51 | 43.48258 | -88.42290 | 16090 ft | 415 kts | 336° |
| 2026-05-05 23:51 | 43.50937 | -88.43296 | 15851 ft | 383 kts | 336° |
| 2026-05-05 23:52 | 43.53419 | -88.44219 | 15506 ft | 358 kts | 336° |
| 2026-05-05 23:52 | 43.55756 | -88.45101 | 14775 ft | 348 kts | 336° |
| 2026-05-05 23:52 | 43.58060 | -88.45992 | 14181 ft | 337 kts | 336° |
| 2026-05-05 23:52 | 43.60263 | -88.46843 | 13750 ft | 322 kts | 336° |
| 2026-05-05 23:53 | 43.62376 | -88.47658 | 13335 ft | 308 kts | 338° |
| 2026-05-05 23:53 | 43.64406 | -88.48445 | 12909 ft | 301 kts | 338° |
| 2026-05-05 23:53 | 43.66415 | -88.49231 | 12503 ft | 300 kts | 338° |
| 2026-05-05 23:53 | 43.68423 | -88.50016 | 12094 ft | 298 kts | 338° |
| 2026-05-05 23:54 | 43.70415 | -88.50793 | 11704 ft | 297 kts | 339° |
| 2026-05-05 23:54 | 43.72405 | -88.51563 | 11305 ft | 296 kts | 339° |
| 2026-05-05 23:54 | 43.74387 | -88.52326 | 10901 ft | 295 kts | 339° |
| 2026-05-05 23:54 | 43.75694 | -88.52829 | 10630 ft | 294 kts | 339° |
| 2026-05-05 23:55 | 43.77663 | -88.53585 | 10225 ft | 293 kts | 340° |
| 2026-05-05 23:55 | 43.79600 | -88.54329 | 10017 ft | 285 kts | 340° |
| 2026-05-05 23:55 | 43.81494 | -88.55057 | 9796 ft | 279 kts | 340° |
| 2026-05-05 23:55 | 43.83978 | -88.56022 | 9266 ft | 283 kts | 340° |
| 2026-05-05 23:56 | 43.85250 | -88.56516 | 9044 ft | 277 kts | 340° |
| 2026-05-05 23:56 | 43.87042 | -88.57204 | 8748 ft | 259 kts | 340° |
| 2026-05-05 23:56 | 43.88748 | -88.57858 | 8288 ft | 250 kts | 340° |
| 2026-05-05 23:56 | 43.90390 | -88.58490 | 7843 ft | 241 kts | 340° |
| 2026-05-05 23:57 | 43.91973 | -88.59104 | 7400 ft | 232 kts | 340° |
| 2026-05-05 23:57 | 43.93505 | -88.59699 | 6961 ft | 225 kts | 340° |
| 2026-05-05 23:57 | 43.94991 | -88.60275 | 6530 ft | 218 kts | 341° |
| 2026-05-05 23:57 | 43.96433 | -88.60835 | 6098 ft | 213 kts | 341° |
| 2026-05-05 23:58 | 43.97849 | -88.61385 | 5649 ft | 210 kts | 340° |
| 2026-05-05 23:58 | 43.99228 | -88.61924 | 5204 ft | 207 kts | 340° |
| 2026-05-05 23:58 | 44.00606 | -88.62462 | 4758 ft | 205 kts | 340° |
| 2026-05-05 23:58 | 44.01973 | -88.62996 | 4320 ft | 203 kts | 340° |
| 2026-05-05 23:59 | 44.03322 | -88.63520 | 3878 ft | 200 kts | 341° |
| 2026-05-05 23:59 | 44.04658 | -88.64037 | 3440 ft | 199 kts | 341° |
| 2026-05-05 23:59 | 44.06002 | -88.64496 | 2997 ft | 200 kts | 349° |
| 2026-05-05 23:59 | 44.07352 | -88.64376 | 2883 ft | 190 kts | 8° |
| 2026-05-06 00:00 | 44.08550 | -88.63721 | 2875 ft | 180 kts | 20° |
| 2026-05-06 00:00 | 44.09632 | -88.62985 | 2883 ft | 168 kts | 19° |
| 2026-05-06 00:00 | 44.10648 | -88.62295 | 2901 ft | 155 kts | 18° |
| 2026-05-06 00:00 | 44.11569 | -88.61670 | 2891 ft | 143 kts | 18° |
| 2026-05-06 00:01 | 44.12446 | -88.61077 | 2910 ft | 138 kts | 18° |
| 2026-05-06 00:01 | 44.13308 | -88.60495 | 2905 ft | 137 kts | 16° |
| 2026-05-06 00:01 | 44.14167 | -88.59913 | 2909 ft | 137 kts | 17° |
| 2026-05-06 00:01 | 44.15028 | -88.59329 | 2909 ft | 138 kts | 18° |
| 2026-05-06 00:02 | 44.15898 | -88.58739 | 2851 ft | 139 kts | 18° |
| 2026-05-06 00:02 | 44.16760 | -88.58153 | 2723 ft | 137 kts | 19° |
| 2026-05-06 00:02 | 44.17620 | -88.57562 | 2550 ft | 139 kts | 19° |
| 2026-05-06 00:02 | 44.18477 | -88.56952 | 2418 ft | 137 kts | 19° |
| 2026-05-06 00:03 | 44.19333 | -88.56348 | 2232 ft | 139 kts | 18° |
| 2026-05-06 00:03 | 44.20200 | -88.55763 | 2036 ft | 138 kts | 17° |
| 2026-05-06 00:03 | 44.21057 | -88.55198 | 1846 ft | 134 kts | 17° |
| 2026-05-06 00:03 | 44.21918 | -88.54662 | 1639 ft | 136 kts | 18° |
| 2026-05-06 00:04 | 44.22765 | -88.54064 | 1408 ft | 137 kts | 19° |
| 2026-05-06 00:04 | 44.23609 | -88.53464 | 1237 ft | 135 kts | 17° |
| 2026-05-06 00:04 | 44.24463 | -88.52898 | 1031 ft | 136 kts | 17° |
| 2026-05-06 00:04 | 44.25300 | -88.52331 | 903 ft | 125 kts | 18° |
| 2026-05-06 00:05 | 44.26154 | -88.51756 | 898 ft | 20 kts | 29° |
| 2026-05-06 00:05 | 44.26168 | -88.51635 | 897 ft | 16 kts | 118° |
| 2026-05-06 00:05 | 44.26146 | -88.51580 | 893 ft | 0 kts | 118° |
| 2026-05-06 00:06 | 44.26121 | -88.51530 | 890 ft | 8 kts | 145° |
| 2026-05-06 00:06 | 44.26083 | -88.51535 | 890 ft | 5 kts | 204° |
| 2026-05-06 00:06 | 44.26056 | -88.51553 | 890 ft | 5 kts | 202° |
| 2026-05-06 00:07 | 44.26026 | -88.51529 | 890 ft | 5 kts | 109° |
| 2026-05-06 00:07 | 44.26022 | -88.51491 | 889 ft | 0 kts | 97° |